Time;durP1;ratioP1;P1;durP2;ratioP2;P2;SDS_P1;SDS_P2;PMS_P1;PMS_P2;Temp;Humidity;BMP_temperature;BMP_pressure;BME280_temperature;BME280_humidity;BME280_pressure;Samples;Min_cycle;Max_cycle;Signal;HPM_P1;HPM_P2
2022/06/01 00:01:29;;;;;;;2.70;1.85;;;;;;;10.52;100.00;100837.94;4917090;29;20402;-77
2022/06/01 00:03:54;;;;;;;2.50;2.20;;;;;;;10.52;100.00;100839.78;4900873;29;20064;-78
2022/06/01 00:06:19;;;;;;;2.97;2.23;;;;;;;10.44;100.00;100829.91;4943298;28;20477;-77
2022/06/01 00:08:45;;;;;;;2.20;1.70;;;;;;;10.36;100.00;100824.53;4912000;29;20104;-78
2022/06/01 00:11:10;;;;;;;2.63;1.83;;;;;;;10.35;100.00;100820.19;4911878;29;20434;-78
2022/06/01 00:13:36;;;;;;;3.37;1.50;;;;;;;10.35;100.00;100814.84;4910843;29;20154;-77
2022/06/01 00:16:02;;;;;;;3.08;1.85;;;;;;;10.40;100.00;100819.72;4911694;29;20104;-76
2022/06/01 00:18:28;;;;;;;2.65;1.90;;;;;;;10.32;100.00;100810.69;4918242;29;20028;-77
2022/06/01 00:20:53;;;;;;;2.00;1.50;;;;;;;10.31;100.00;100797.50;4895073;29;20039;-79
2022/06/01 00:23:20;;;;;;;2.58;2.30;;;;;;;10.30;100.00;100783.31;4943612;28;20028;-77
2022/06/01 00:25:46;;;;;;;2.00;1.75;;;;;;;10.29;100.00;100759.44;4911572;29;20040;-79
2022/06/01 00:28:12;;;;;;;5.15;2.22;;;;;;;10.29;100.00;100768.28;4911146;29;20107;-75
2022/06/01 00:30:37;;;;;;;1.70;1.60;;;;;;;10.26;100.00;100784.59;4910849;29;20046;-78
2022/06/01 00:33:03;;;;;;;2.23;2.00;;;;;;;10.25;100.00;100779.41;4913920;29;20505;-78
2022/06/01 00:35:29;;;;;;;2.85;1.60;;;;;;;10.20;100.00;100773.72;4911243;29;20047;-79
2022/06/01 00:37:54;;;;;;;2.72;1.38;;;;;;;10.17;100.00;100782.03;4912375;29;20124;-78
2022/06/01 00:40:22;;;;;;;2.67;1.90;;;;;;;10.22;100.00;100795.75;4942837;28;20084;-79
2022/06/01 00:42:50;;;;;;;3.20;1.65;;;;;;;10.18;100.00;100791.72;4894167;29;20036;-78
2022/06/01 00:45:20;;;;;;;2.55;1.50;;;;;;;10.13;100.00;100793.00;4926849;29;20434;-79
2022/06/01 00:47:46;;;;;;;2.17;1.60;;;;;;;10.22;100.00;100798.41;4897802;29;20111;-79
2022/06/01 00:50:21;;;;;;;1.52;1.33;;;;;;;10.20;100.00;100784.38;4912121;29;20032;-77
2022/06/01 00:52:53;;;;;;;5.25;2.00;;;;;;;10.21;100.00;100780.72;4908825;29;20043;-76
2022/06/01 00:55:24;;;;;;;2.00;1.27;;;;;;;10.16;100.00;100775.88;4912428;29;20473;-78
2022/06/01 00:57:56;;;;;;;2.45;2.08;;;;;;;10.23;100.00;100763.56;4911577;29;20048;-79
2022/06/01 01:00:25;;;;;;;1.55;1.30;;;;;;;10.31;100.00;100766.28;4911161;29;20107;-75
2022/06/01 01:02:55;;;;;;;1.52;1.42;;;;;;;10.27;100.00;100785.41;4910703;29;20138;-79
2022/06/01 01:05:22;;;;;;;2.15;1.95;;;;;;;10.31;100.00;100792.16;4913982;29;20079;-78
2022/06/01 01:07:51;;;;;;;2.00;1.40;;;;;;;10.26;100.00;100800.59;4917046;29;20080;-79
2022/06/01 01:10:17;;;;;;;2.78;1.70;;;;;;;10.33;100.00;100816.84;4910783;29;20489;-77
2022/06/01 01:13:04;;;;;;;2.10;1.90;;;;;;;10.30;100.00;100818.00;4914061;29;20129;-79
2022/06/01 01:15:40;;;;;;;2.38;1.95;;;;;;;10.29;100.00;100812.81;4898642;29;20043;-78
2022/06/01 01:18:11;;;;;;;1.60;1.50;;;;;;;10.34;100.00;100824.69;4913097;29;20493;-77
2022/06/01 01:20:45;;;;;;;2.70;1.70;;;;;;;10.48;100.00;100833.91;4910880;29;20381;-76
2022/06/01 01:23:31;;;;;;;1.98;1.48;;;;;;;10.50;100.00;100833.78;4912116;29;20486;-79
2022/06/01 01:25:56;;;;;;;1.75;1.05;;;;;;;10.47;100.00;100842.94;4946298;28;20512;-77
2022/06/01 01:28:22;;;;;;;2.83;1.52;;;;;;;10.23;100.00;100848.09;4911623;29;20516;-77
2022/06/01 01:30:57;;;;;;;3.40;1.33;;;;;;;10.21;100.00;100868.75;4912527;29;20531;-75
2022/06/01 01:33:25;;;;;;;3.88;1.90;;;;;;;10.16;100.00;100869.25;4895177;29;20038;-79
2022/06/01 01:35:57;;;;;;;1.55;1.45;;;;;;;10.11;100.00;100874.19;4896161;29;20083;-79
2022/06/01 01:38:31;;;;;;;4.65;1.73;;;;;;;10.14;100.00;100877.41;4895221;29;20095;-78
2022/06/01 01:41:07;;;;;;;2.78;1.55;;;;;;;10.15;100.00;100884.41;4901184;29;20094;-76
2022/06/01 01:43:37;;;;;;;1.45;1.25;;;;;;;10.05;100.00;100877.50;4897664;29;20383;-79
2022/06/01 01:46:03;;;;;;;1.60;1.40;;;;;;;10.06;100.00;100884.50;4930768;29;20032;-79
2022/06/01 01:48:30;;;;;;;1.73;1.55;;;;;;;10.08;100.00;100883.34;4918579;29;20040;-79
2022/06/01 01:50:56;;;;;;;3.10;1.60;;;;;;;9.98;100.00;100885.28;4918815;29;20026;-79
2022/06/01 01:53:21;;;;;;;3.33;1.70;;;;;;;9.89;100.00;100879.03;4896323;29;20032;-76
2022/06/01 01:55:58;;;;;;;2.73;1.53;;;;;;;9.97;100.00;100891.59;4921405;29;20454;-76
2022/06/01 01:58:42;;;;;;;2.22;1.70;;;;;;;9.94;100.00;100899.91;4898303;29;20032;-79
2022/06/01 02:01:36;;;;;;;1.73;1.63;;;;;;;9.99;100.00;100899.47;4913672;29;20043;-79
2022/06/01 02:06:03;;;;;;;1.75;1.48;;;;;;;10.07;100.00;100897.69;4916593;29;20043;-76
2022/06/01 02:06:58;;;;;;;2.13;1.45;;;;;;;10.09;100.00;100894.84;4925085;29;20126;-79
2022/06/01 02:09:23;;;;;;;2.67;1.65;;;;;;;10.02;100.00;100897.34;4897269;29;20489;-78
2022/06/01 02:14:55;;;;;;;2.17;1.90;;;;;;;9.96;100.00;100895.28;4953964;28;20136;-79
2022/06/01 02:17:28;;;;;;;2.30;1.77;;;;;;;9.90;100.00;100896.75;4920206;29;20036;-79
2022/06/01 02:19:59;;;;;;;2.28;1.92;;;;;;;9.90;100.00;100902.06;4921017;29;20047;-79
2022/06/01 02:22:25;;;;;;;2.40;2.03;;;;;;;9.87;100.00;100902.38;4920130;29;20485;-78
2022/06/01 02:24:51;;;;;;;2.67;2.45;;;;;;;9.88;100.00;100906.72;4917677;29;20434;-80
2022/06/01 02:27:18;;;;;;;3.72;2.60;;;;;;;9.89;100.00;100902.22;4934749;29;20063;-79
2022/06/01 02:29:53;;;;;;;4.03;3.22;;;;;;;9.88;100.00;100903.19;4909156;29;20020;-77
2022/06/01 02:32:20;;;;;;;2.72;2.50;;;;;;;9.89;100.00;100902.22;4915793;29;20166;-79
2022/06/01 02:34:47;;;;;;;3.30;3.00;;;;;;;9.87;100.00;100885.53;4917508;29;20123;-76
2022/06/01 02:37:14;;;;;;;5.70;3.45;;;;;;;9.87;100.00;100898.88;4938679;29;20363;-80
2022/06/01 02:39:44;;;;;;;5.95;3.35;;;;;;;9.82;100.00;100896.66;4929684;29;20022;-76
2022/06/01 02:42:25;;;;;;;5.03;3.83;;;;;;;9.77;100.00;100882.97;4930730;29;20031;-76
2022/06/01 02:44:54;;;;;;;4.38;3.20;;;;;;;9.81;100.00;100884.34;4932821;29;20052;-75
2022/06/01 02:47:19;;;;;;;3.97;3.50;;;;;;;9.86;100.00;100879.38;4912394;29;20541;-77
2022/06/01 02:49:45;;;;;;;4.30;3.60;;;;;;;9.89;100.00;100883.56;4918771;29;20156;-78
2022/06/01 02:52:10;;;;;;;4.10;3.60;;;;;;;9.90;100.00;100879.88;4948136;23;20321;-92
2022/06/01 02:54:35;;;;;;;5.73;3.67;;;;;;;9.87;100.00;100880.19;4957587;28;20027;-91
2022/06/01 02:57:01;;;;;;;5.00;3.57;;;;;;;9.84;100.00;100872.50;4947526;29;20065;-91
2022/06/01 02:59:26;;;;;;;7.30;3.43;;;;;;;9.77;100.00;100864.28;4946967;29;20063;-91
2022/06/01 03:01:52;;;;;;;5.37;2.93;;;;;;;9.73;100.00;100858.41;4930583;29;20090;-91
2022/06/01 03:04:17;;;;;;;2.90;2.50;;;;;;;9.80;100.00;100868.47;4939093;29;20063;-91
2022/06/01 03:06:43;;;;;;;9.00;3.27;;;;;;;9.72;100.00;100854.09;4946068;29;20034;-91
2022/06/01 03:09:10;;;;;;;7.03;3.50;;;;;;;9.79;100.00;100864.16;4930581;29;20066;-91
2022/06/01 03:11:36;;;;;;;4.47;3.15;;;;;;;9.86;100.00;100867.88;4930290;29;20074;-90
2022/06/01 03:14:02;;;;;;;6.50;4.28;;;;;;;9.87;100.00;100872.19;4930454;29;20035;-90
2022/06/01 03:16:27;;;;;;;6.40;4.67;;;;;;;9.92;100.00;100868.06;4931278;29;20034;-91
2022/06/01 03:18:53;;;;;;;5.53;3.83;;;;;;;9.93;100.00;100861.75;4930813;29;20039;-92
2022/06/01 03:21:19;;;;;;;4.47;4.03;;;;;;;9.90;100.00;100869.22;4932205;29;20034;-91
2022/06/01 03:23:45;;;;;;;7.88;5.13;;;;;;;10.01;100.00;100882.31;4944928;29;20047;-90
2022/06/01 03:26:12;;;;;;;4.88;4.03;;;;;;;10.01;100.00;100871.63;4945327;29;20027;-91
2022/06/01 03:28:39;;;;;;;5.35;3.92;;;;;;;10.04;100.00;100876.66;4929470;29;20094;-91
2022/06/01 03:31:06;;;;;;;4.97;4.20;;;;;;;9.99;100.00;100868.28;4929514;29;20019;-91
2022/06/01 03:33:32;;;;;;;5.30;4.80;;;;;;;10.01;100.00;100882.31;4945426;29;20055;-92
2022/06/01 03:35:57;;;;;;;;;;;;;;;10.07;100.00;100880.88;4945254;29;20121;-91
2022/06/01 03:38:23;;;;;;;;;;;;;;;10.05;100.00;100878.34;4961723;29;19915;-91
2022/06/01 03:40:48;;;;;;;3.87;3.30;;;;;;;10.02;100.00;100877.78;4932184;29;19911;-91
2022/06/01 03:43:14;;;;;;;5.17;3.97;;;;;;;10.04;100.00;100879.31;4931827;29;20031;-91
2022/06/01 03:45:55;;;;;;;4.13;3.17;;;;;;;10.02;100.00;100872.47;4933813;29;20314;-91
2022/06/01 03:48:29;;;;;;;5.63;3.47;;;;;;;10.08;100.00;100877.19;4929339;29;20033;-91
2022/06/01 03:50:56;;;;;;;7.20;3.63;;;;;;;10.04;100.00;100870.47;4929451;29;20032;-91
2022/06/01 03:53:23;;;;;;;5.85;3.75;;;;;;;9.97;100.00;100872.94;4930378;29;20011;-91
2022/06/01 03:55:48;;;;;;;5.47;3.63;;;;;;;10.07;100.00;100872.84;4933287;29;20050;-91
2022/06/01 03:58:16;;;;;;;6.50;3.78;;;;;;;10.12;100.00;100868.72;4930128;29;20055;-91
2022/06/01 04:00:42;;;;;;;4.63;3.47;;;;;;;10.15;100.00;100865.72;4929959;29;20135;-91
2022/06/01 04:03:09;;;;;;;5.32;3.70;;;;;;;10.10;100.00;100864.53;4927628;29;20024;-91
2022/06/01 04:05:34;;;;;;;;;;;;;;;10.17;100.00;100864.75;4929000;29;20040;-91
2022/06/01 04:08:01;;;;;;;6.72;3.70;;;;;;;10.17;100.00;100876.25;4928650;29;20006;-91
2022/06/01 04:10:27;;;;;;;6.18;3.15;;;;;;;10.08;100.00;100856.69;4928844;29;20031;-91
2022/06/01 04:12:52;;;;;;;4.72;3.65;;;;;;;10.18;100.00;100855.75;4931086;29;20038;-91
2022/06/01 04:15:18;;;;;;;4.50;3.43;;;;;;;10.12;100.00;100860.72;4932688;29;20040;-91
2022/06/01 04:17:43;;;;;;;4.93;3.67;;;;;;;10.25;100.00;100862.13;4934489;29;20035;-91
2022/06/01 04:20:10;;;;;;;4.43;3.50;;;;;;;10.37;100.00;100860.88;4929561;29;20039;-90
2022/06/01 04:22:38;;;;;;;;;;;;;;;10.47;100.00;100863.47;4934362;29;20302;-90
2022/06/01 04:25:04;;;;;;;5.18;3.28;;;;;;;10.53;100.00;100850.28;4960083;29;19914;-91
2022/06/01 04:27:29;;;;;;;6.55;3.30;;;;;;;10.72;100.00;100843.88;4945184;29;20054;-91
2022/06/01 04:29:55;;;;;;;4.10;2.47;;;;;;;10.83;100.00;100828.56;4928374;29;20040;-91
2022/06/01 04:32:27;;;;;;;3.80;2.73;;;;;;;10.90;100.00;100808.22;4928689;29;20072;-91
2022/06/01 04:34:52;;;;;;;2.60;2.38;;;;;;;10.93;100.00;100800.72;4928809;29;20070;-91
2022/06/01 04:37:18;;;;;;;5.68;2.22;;;;;;;10.96;100.00;100781.69;4924105;29;20449;-90
2022/06/01 04:39:43;;;;;;;4.17;2.70;;;;;;;10.84;100.00;100775.00;4939988;29;20043;-91
2022/06/01 04:42:08;;;;;;;3.10;2.10;;;;;;;10.84;100.00;100774.13;4925698;29;20019;-91
2022/06/01 04:44:34;;;;;;;2.50;2.07;;;;;;;10.82;100.00;100766.31;4941871;29;20058;-90
2022/06/01 04:46:59;;;;;;;2.73;2.20;;;;;;;10.83;100.00;100767.97;4926438;29;20102;-91
2022/06/01 04:49:25;;;;;;;3.53;2.80;;;;;;;10.75;100.00;100775.97;4943244;29;20043;-92
2022/06/01 04:51:50;;;;;;;1.93;1.63;;;;;;;10.88;100.00;100776.31;4927454;29;20046;-91
2022/06/01 04:54:16;;;;;;;2.70;1.80;;;;;;;10.88;100.00;100762.13;4928022;29;20038;-91
2022/06/01 04:56:41;;;;;;;3.40;2.13;;;;;;;10.70;100.00;100743.56;4926385;29;20032;-91
2022/06/01 04:59:06;;;;;;;3.37;2.30;;;;;;;10.82;100.00;100770.81;4941945;29;20035;-91
2022/06/01 05:01:32;;;;;;;3.10;2.13;;;;;;;10.78;100.00;100767.63;4926524;29;20031;-91
2022/06/01 05:03:57;;;;;;;1.77;1.67;;;;;;;10.77;100.00;100776.66;4942341;29;20050;-91
2022/06/01 05:06:23;;;;;;;2.37;1.60;;;;;;;10.84;100.00;100772.31;4926170;29;20032;-92
2022/06/01 05:08:48;;;;;;;3.33;2.00;;;;;;;10.87;100.00;100785.34;4925913;29;20107;-92
2022/06/01 05:11:13;;;;;;;3.10;1.67;;;;;;;10.81;100.00;100772.63;4925865;29;20024;-91
2022/06/01 05:13:39;;;;;;;1.90;1.60;;;;;;;10.80;100.00;100773.63;4931382;29;20408;-90
2022/06/01 05:16:06;;;;;;;2.50;1.50;;;;;;;10.80;100.00;100770.97;4925178;29;20054;-91
2022/06/01 05:18:31;;;;;;;1.70;1.60;;;;;;;10.82;100.00;100779.66;4935932;29;20526;-91
2022/06/01 05:20:57;;;;;;;1.60;1.50;;;;;;;10.82;100.00;100776.97;4926177;29;20027;-91
2022/06/01 05:23:23;;;;;;;3.20;2.43;;;;;;;11.00;100.00;100784.84;4922335;29;20035;-91
2022/06/01 05:25:51;;;;;;;2.63;1.92;;;;;;;11.07;100.00;100777.00;4938554;29;20031;-91
2022/06/01 05:28:20;;;;;;;2.42;1.90;;;;;;;11.35;100.00;100781.03;4921278;29;20036;-90
2022/06/01 05:30:45;;;;;;;4.07;1.88;;;;;;;11.52;100.00;100763.19;4926233;29;20040;-91
2022/06/01 05:33:10;;;;;;;2.23;2.00;;;;;;;11.81;100.00;100767.97;4940171;29;20507;-90
2022/06/01 05:35:36;;;;;;;2.13;1.90;;;;;;;11.97;100.00;100750.28;4922840;29;20031;-90
2022/06/01 05:38:02;;;;;;;2.07;1.73;;;;;;;12.27;100.00;100743.31;4921767;29;20032;-89
2022/06/01 05:40:30;;;;;;;1.48;1.23;;;;;;;12.37;100.00;100710.97;4937118;29;20318;-93
2022/06/01 05:42:57;;;;;;;1.70;1.35;;;;;;;12.34;100.00;100680.03;4920331;29;20105;-89
2022/06/01 05:45:22;;;;;;;2.20;1.30;;;;;;;12.25;100.00;100665.03;4915938;29;20414;-90
2022/06/01 05:47:47;;;;;;;1.20;1.10;;;;;;;12.35;100.00;100678.19;4916065;29;20051;-90
2022/06/01 05:50:13;;;;;;;1.93;1.30;;;;;;;12.12;100.00;100654.88;4913604;29;20020;-90
2022/06/01 05:52:39;;;;;;;3.83;1.30;;;;;;;12.22;100.00;100660.00;4935490;29;20595;-89
2022/06/01 05:55:07;;;;;;;1.37;1.20;;;;;;;12.17;100.00;100641.78;4917654;29;20035;-89
2022/06/01 05:57:32;;;;;;;1.52;1.20;;;;;;;12.34;100.00;100653.25;4916418;29;20032;-89
2022/06/01 05:59:58;;;;;;;1.10;1.00;;;;;;;12.55;100.00;100655.31;4916717;29;20051;-90
2022/06/01 06:02:30;;;;;;;1.20;1.10;;;;;;;12.82;100.00;100651.25;4918280;29;20046;-89
2022/06/01 06:04:56;;;;;;;3.55;2.20;;;;;;;12.86;100.00;100638.34;4932716;29;20177;-89
2022/06/01 06:07:21;;;;;;;1.13;1.03;;;;;;;12.94;100.00;100600.72;4917380;29;20601;-90
2022/06/01 06:09:46;;;;;;;2.40;1.13;;;;;;;13.04;100.00;100595.97;4920490;29;20666;-90
2022/06/01 06:12:12;;;;;;;1.70;1.33;;;;;;;13.01;100.00;100561.47;4931277;29;20031;-89
2022/06/01 06:14:38;;;;;;;3.67;1.10;;;;;;;12.87;100.00;100552.41;4931470;29;20048;-89
2022/06/01 06:17:03;;;;;;;1.45;1.30;;;;;;;13.33;100.00;100607.78;4920608;29;20056;-90
2022/06/01 06:19:29;;;;;;;5.15;1.42;;;;;;;13.56;100.00;100574.69;4932641;29;20088;-87
2022/06/01 06:21:54;;;;;;;1.87;1.10;;;;;;;13.59;100.00;100534.06;4949758;28;20040;-89
2022/06/01 06:24:20;;;;;;;1.50;1.20;;;;;;;13.71;100.00;100556.69;4953086;28;20019;-88
2022/06/01 06:26:47;;;;;;;1.20;1.10;;;;;;;13.82;100.00;100534.75;4915909;29;20036;-89
2022/06/01 06:29:15;;;;;;;0.80;0.75;;;;;;;14.08;100.00;100506.53;4915663;29;20048;-90
2022/06/01 06:31:41;;;;;;;0.90;0.70;;;;;;;14.24;100.00;100489.34;4916110;29;20039;-90
2022/06/01 06:34:06;;;;;;;1.10;0.80;;;;;;;13.85;100.00;100399.38;4932641;29;20065;-90
2022/06/01 06:36:32;;;;;;;1.10;0.90;;;;;;;14.00;100.00;100469.94;4916612;29;20028;-89
2022/06/01 06:38:57;;;;;;;0.85;0.85;;;;;;;14.30;100.00;100499.31;4931388;29;20090;-90
2022/06/01 06:41:23;;;;;;;0.80;0.80;;;;;;;15.19;100.00;100547.97;4928478;29;20118;-90
2022/06/01 06:43:49;;;;;;;1.27;0.80;;;;;;;16.27;100.00;100463.03;4935152;29;20039;-90
2022/06/01 06:46:18;;;;;;;1.23;1.10;;;;;;;17.21;100.00;100352.13;4919201;29;20035;-90
2022/06/01 06:48:48;;;;;;;2.20;0.85;;;;;;;17.97;95.28;100247.75;4917659;29;20051;-90
2022/06/01 06:51:14;;;;;;;0.68;0.68;;;;;;;18.32;85.96;100152.59;4919964;29;20047;-90
2022/06/01 06:53:39;;;;;;;1.35;0.60;;;;;;;18.58;83.98;100185.75;4918592;29;20035;-89
2022/06/01 06:56:05;;;;;;;0.93;0.70;;;;;;;18.19;77.09;100013.13;4918148;29;20039;-89
2022/06/01 06:58:32;;;;;;;0.70;0.70;;;;;;;18.85;76.84;100162.72;4918240;29;20118;-88
2022/06/01 07:00:58;;;;;;;2.05;1.05;;;;;;;19.19;71.37;100065.59;4933719;29;20042;-90
2022/06/01 07:03:23;;;;;;;0.82;0.77;;;;;;;18.77;66.74;99935.88;4913613;29;20028;-89
2022/06/01 07:08:33;;;;;;;1.73;0.93;;;;;;;18.26;66.77;99943.59;4933742;29;20067;-90
2022/06/01 07:10:59;;;;;;;0.73;0.70;;;;;;;17.84;67.02;99886.91;4925574;29;20039;-89
2022/06/01 07:13:27;;;;;;;0.77;0.55;;;;;;;17.36;72.09;99997.56;4918076;29;20172;-90
2022/06/01 07:16:07;;;;;;;0.60;0.50;;;;;;;16.74;73.73;99998.38;4918083;29;20019;-89
2022/06/01 07:18:34;;;;;;;0.68;0.60;;;;;;;16.52;76.10;100061.75;4933630;29;20260;-89
2022/06/01 07:20:59;;;;;;;0.93;0.68;;;;;;;16.01;75.21;99972.81;4917966;29;20499;-89
2022/06/01 07:23:25;;;;;;;3.63;1.20;;;;;;;15.90;83.24;100161.94;4917909;29;20028;-90
2022/06/01 07:25:52;;;;;;;0.80;0.80;;;;;;;15.72;90.10;100256.78;4916813;29;20516;-89
2022/06/01 07:28:21;;;;;;;2.83;0.90;;;;;;;15.46;91.64;100252.19;4917670;29;20039;-90
2022/06/01 07:30:47;;;;;;;1.02;0.80;;;;;;;15.37;96.13;100331.44;4916316;29;20080;-89
2022/06/01 07:33:12;;;;;;;0.80;0.70;;;;;;;15.33;97.86;100359.75;4918193;29;20070;-90
2022/06/01 07:35:38;;;;;;;2.63;1.03;;;;;;;15.42;100.00;100396.22;4917521;29;20055;-89
2022/06/01 07:43:31;;;;;;;1.00;0.70;;;;;;;15.54;100.00;100424.16;4933075;29;20036;-89
2022/06/01 07:45:56;;;;;;;0.80;0.77;;;;;;;15.47;100.00;100412.56;4933142;29;20384;-90
2022/06/01 07:48:22;;;;;;;1.00;0.90;;;;;;;15.15;98.98;100328.09;4920584;29;20392;-88
2022/06/01 07:50:50;;;;;;;1.20;0.90;;;;;;;15.44;100.00;100465.97;4917390;29;20172;-89
2022/06/01 07:53:16;;;;;;;1.30;1.00;;;;;;;15.33;100.00;100392.03;4916967;29;20046;-90
2022/06/01 07:55:42;;;;;;;2.80;0.80;;;;;;;15.26;100.00;100380.44;4932988;29;20078;-90
2022/06/01 07:58:09;;;;;;;1.25;1.15;;;;;;;15.39;100.00;100445.03;4917077;29;20126;-90
2022/06/01 08:00:34;;;;;;;1.92;1.63;;;;;;;15.59;100.00;100483.63;4917096;29;20114;-89
2022/06/01 08:03:00;;;;;;;1.33;0.70;;;;;;;15.73;100.00;100440.59;4933208;29;20123;-90
2022/06/01 08:05:26;;;;;;;1.23;0.80;;;;;;;15.79;97.50;100391.34;4917978;29;20035;-91
2022/06/01 08:07:51;;;;;;;1.70;0.63;;;;;;;15.61;94.25;100320.06;4934219;29;20445;-88
2022/06/01 08:10:19;;;;;;;1.47;0.87;;;;;;;15.45;90.29;100250.53;4914597;29;20055;-90
2022/06/01 08:15:29;;;;;;;1.80;0.90;;;;;;;15.14;98.91;100391.78;4937066;29;20143;-90
2022/06/01 08:17:57;;;;;;;4.03;1.58;;;;;;;15.24;100.00;100511.56;4917817;29;20760;-91
2022/06/01 08:20:24;;;;;;;0.93;0.85;;;;;;;15.01;100.00;100456.25;4917889;29;20031;-91
2022/06/01 08:22:50;;;;;;;0.80;0.80;;;;;;;14.96;100.00;100490.94;4933456;28;20027;-90
2022/06/01 08:25:16;;;;;;;2.20;1.08;;;;;;;14.73;100.00;100477.78;4920816;29;20035;-90
2022/06/01 08:27:43;;;;;;;2.45;1.17;;;;;;;14.86;100.00;100525.41;4918185;29;20101;-90
2022/06/01 08:30:21;;;;;;;3.55;0.85;;;;;;;14.71;100.00;100572.03;4918484;29;20578;-89
2022/06/01 08:32:47;;;;;;;0.98;0.65;;;;;;;14.70;100.00;100591.88;4924915;29;20134;-91
2022/06/01 08:35:14;;;;;;;0.80;0.80;;;;;;;14.59;100.00;100600.44;4936775;29;20050;-91
2022/06/01 08:37:41;;;;;;;3.35;1.20;;;;;;;14.33;100.00;100600.97;4934090;29;20046;-90
2022/06/01 08:40:06;;;;;;;;;;;;;;;14.51;100.00;100624.69;4916674;29;20629;-89
2022/06/01 08:42:33;;;;;;;;;;;;;;;14.59;100.00;100621.94;4925364;29;19918;-86
2022/06/01 08:45:01;;;;;;;;;;;;;;;14.71;100.00;100678.69;4917085;29;20004;-87
2022/06/01 08:47:33;;;;;;;1.20;0.93;;;;;;;14.74;100.00;100627.22;4948718;28;19915;-90
2022/06/01 08:50:03;;;;;;;2.00;1.30;;;;;;;14.63;100.00;100601.69;4916673;29;20114;-86
2022/06/01 08:52:29;;;;;;;4.93;1.33;;;;;;;14.72;100.00;100608.59;4916351;29;20051;-90
2022/06/01 08:54:55;;;;;;;1.15;1.05;;;;;;;14.68;100.00;100548.25;4917600;29;20022;-92
2022/06/01 08:57:28;;;;;;;1.65;0.90;;;;;;;14.59;100.00;100568.19;4921659;29;20066;-90
2022/06/01 08:59:53;;;;;;;4.15;1.20;;;;;;;14.45;100.00;100518.03;4923551;29;20027;-91
2022/06/01 09:02:49;;;;;;;1.47;1.10;;;;;;;14.32;100.00;100556.34;4931234;29;20026;-90
2022/06/01 09:05:53;;;;;;;0.93;0.90;;;;;;;14.31;100.00;100630.69;4930925;29;20083;-91
2022/06/01 09:08:50;;;;;;;0.83;0.83;;;;;;;14.12;100.00;100583.81;4915304;29;20031;-91
2022/06/01 09:11:28;;;;;;;1.73;0.98;;;;;;;13.90;100.00;100641.97;4927486;29;20055;-91
2022/06/01 09:13:57;;;;;;;1.90;1.25;;;;;;;13.53;100.00;100586.59;4916594;29;20099;-90
2022/06/01 09:16:52;;;;;;;2.70;1.17;;;;;;;13.56;100.00;100647.09;4927847;29;20020;-90
2022/06/01 09:19:26;;;;;;;3.13;2.40;;;;;;;12.66;100.00;100708.44;4932776;29;20106;-90
2022/06/01 09:24:50;;;;;;;5.63;4.15;;;;;;;11.86;100.00;100858.44;4932754;29;20077;-90
2022/06/01 09:27:17;;;;;;;5.00;3.20;;;;;;;11.44;100.00;100886.16;4920116;29;20052;-86
2022/06/01 09:29:49;;;;;;;8.40;4.28;;;;;;;11.19;100.00;100901.28;4932890;29;20039;-91
2022/06/01 09:32:29;;;;;;;6.20;4.88;;;;;;;11.01;100.00;100927.31;4917063;29;20040;-89
2022/06/01 09:35:00;;;;;;;7.50;5.13;;;;;;;10.64;100.00;100949.81;4921415;29;20094;-90
2022/06/01 09:37:31;;;;;;;16.42;6.85;;;;;;;10.65;100.00;100962.16;4916344;29;20039;-90
2022/06/01 09:40:00;;;;;;;11.90;7.47;;;;;;;10.38;100.00;100974.66;4919006;29;20110;-89
2022/06/01 09:42:35;;;;;;;16.63;8.07;;;;;;;10.48;100.00;100980.72;4916437;29;20484;-90
2022/06/01 09:45:04;;;;;;;7.57;5.95;;;;;;;10.36;100.00;100987.31;4914347;29;20492;-91
2022/06/01 09:47:36;;;;;;;15.43;9.32;;;;;;;10.26;100.00;100999.91;4935550;29;20421;-91
2022/06/01 09:50:04;;;;;;;13.75;10.27;;;;;;;10.08;100.00;101000.72;4931640;29;20055;-92
2022/06/01 09:52:34;;;;;;;18.23;10.75;;;;;;;10.01;100.00;100997.00;4914299;29;20083;-91
2022/06/01 09:55:19;;;;;;;18.10;11.13;;;;;;;10.00;100.00;100994.50;4914913;29;20653;-92
2022/06/01 09:58:10;;;;;;;15.00;11.75;;;;;;;10.09;100.00;101010.44;4920378;29;20035;-93
2022/06/01 10:06:27;;;;;;;;;;;;;;;10.48;100.00;101007.44;4933477;29;20130;-91
2022/06/01 10:09:11;;;;;;;21.45;13.57;;;;;;;10.51;100.00;100992.94;4930031;29;20013;-91
2022/06/01 10:11:40;;;;;;;20.52;14.68;;;;;;;10.66;100.00;101004.72;4916007;28;20171;-91
2022/06/01 10:14:15;;;;;;;15.23;11.77;;;;;;;10.61;100.00;101001.69;4931258;29;20024;-91
2022/06/01 10:17:03;;;;;;;18.48;12.35;;;;;;;10.59;100.00;101000.19;4924620;29;20057;-90
2022/06/01 10:19:35;;;;;;;18.13;11.25;;;;;;;10.64;100.00;101004.03;4934321;29;20047;-90
2022/06/01 10:22:08;;;;;;;12.50;9.73;;;;;;;10.75;100.00;100997.63;4921421;29;20043;-90
2022/06/01 10:24:43;;;;;;;16.98;11.35;;;;;;;10.93;100.00;100989.53;4930797;29;20047;-91
2022/06/01 10:27:10;;;;;;;15.75;9.95;;;;;;;10.79;100.00;100977.59;4934526;29;20387;-92
2022/06/01 10:29:51;;;;;;;10.18;7.47;;;;;;;10.67;100.00;100957.50;4921684;29;20034;-92
2022/06/01 10:32:35;;;;;;;12.43;9.07;;;;;;;10.81;100.00;100954.22;4922659;29;20032;-89
2022/06/01 10:35:29;;;;;;;12.57;8.25;;;;;;;10.91;100.00;100941.63;4914404;29;20409;-93
2022/06/01 10:38:06;;;;;;;14.50;9.30;;;;;;;10.77;100.00;100936.88;4933525;29;20039;-89
2022/06/01 10:40:52;;;;;;;11.68;9.02;;;;;;;11.18;100.00;100935.19;4917419;29;20456;-89
2022/06/01 10:43:32;;;;;;;10.00;7.97;;;;;;;11.44;100.00;100933.44;4927731;29;20043;-90
2022/06/01 10:46:05;;;;;;;12.77;6.70;;;;;;;11.34;100.00;100918.38;4949953;29;20659;-89
2022/06/01 10:48:36;;;;;;;8.38;6.30;;;;;;;11.47;100.00;100901.03;4930151;29;20039;-89
2022/06/01 10:51:19;;;;;;;7.47;6.20;;;;;;;11.95;100.00;100899.44;4941781;29;20059;-89
2022/06/01 10:54:10;;;;;;;5.70;3.78;;;;;;;11.33;100.00;100879.28;4926102;29;20085;-90
2022/06/01 10:56:36;;;;;;;6.15;3.63;;;;;;;11.40;100.00;100856.25;4925646;29;20586;-89
2022/06/01 10:59:05;;;;;;;9.85;5.05;;;;;;;11.93;100.00;100872.84;4937054;28;20115;-90
2022/06/01 11:01:58;;;;;;;7.70;5.60;;;;;;;11.71;100.00;100858.28;4933540;29;20039;-90
2022/06/01 11:04:53;;;;;;;6.07;4.70;;;;;;;12.32;100.00;100861.41;4940389;29;20040;-90
2022/06/01 11:07:49;;;;;;;3.90;3.40;;;;;;;12.77;100.00;100862.59;4928115;29;20521;-89
2022/06/01 11:10:24;;;;;;;5.28;4.00;;;;;;;13.36;100.00;100851.41;4935690;29;20028;-90
2022/06/01 11:13:12;;;;;;;5.60;4.00;;;;;;;13.61;100.00;100837.81;4932803;29;20062;-90
2022/06/01 11:15:55;;;;;;;4.70;3.72;;;;;;;13.87;100.00;100789.94;4926493;29;20050;-90
2022/06/01 11:19:02;;;;;;;4.97;3.17;;;;;;;14.81;100.00;100734.81;4920649;29;20043;-90
2022/06/01 11:21:42;;;;;;;3.40;1.77;;;;;;;16.17;100.00;100630.44;4926382;29;20115;-90
2022/06/01 11:24:20;;;;;;;2.42;2.08;;;;;;;16.18;100.00;100475.91;4911295;29;20531;-90
2022/06/01 11:27:03;;;;;;;2.33;2.08;;;;;;;16.69;100.00;100380.91;4924641;29;20543;-90
2022/06/01 11:29:58;;;;;;;1.98;1.77;;;;;;;15.97;100.00;100270.44;4925138;29;20431;-89
2022/06/01 11:32:31;;;;;;;2.03;1.77;;;;;;;16.35;100.00;100420.56;4936229;29;20071;-89
2022/06/01 11:35:21;;;;;;;2.78;1.63;;;;;;;17.26;100.00;100306.44;4916882;29;20103;-89
2022/06/01 11:38:31;;;;;;;1.38;1.27;;;;;;;17.17;100.00;100415.63;4924878;29;20128;-89
2022/06/01 11:41:27;;;;;;;2.20;2.00;;;;;;;16.83;100.00;100547.03;4908645;29;20040;-89
2022/06/01 11:44:02;;;;;;;2.55;1.83;;;;;;;16.94;100.00;100507.81;4947889;28;20138;-90
2022/06/01 11:46:33;;;;;;;1.63;1.52;;;;;;;16.80;100.00;100361.41;4917303;29;20633;-89
2022/06/01 11:49:03;;;;;;;1.40;1.30;;;;;;;17.11;100.00;100439.94;4933673;29;20157;-89
2022/06/01 11:51:37;;;;;;;1.60;1.50;;;;;;;17.70;100.00;100511.72;4932971;29;20507;-87
2022/06/01 11:54:21;;;;;;;2.47;1.77;;;;;;;17.45;100.00;100331.63;4933344;29;20036;-89
2022/06/01 11:57:02;;;;;;;2.60;1.52;;;;;;;17.52;100.00;100431.47;4924714;29;20044;-88